createdAt,value
2022-08-29T00:04:30.789Z,72.05
2022-08-29T00:10:02.500Z,72.12
2022-08-29T00:15:35.154Z,72.16
2022-08-29T00:21:05.736Z,72.20
2022-08-29T00:32:07.554Z,72.31
2022-08-29T00:37:39.397Z,72.43
2022-08-29T00:45:37.894Z,0.00
2022-08-29T00:51:09.566Z,72.58
2022-08-29T00:56:41.533Z,72.71
2022-08-29T01:02:13.324Z,72.81
2022-08-29T01:07:45.049Z,72.89
2022-08-29T01:24:21.828Z,73.07
2022-08-29T01:29:53.354Z,73.10
2022-08-29T01:35:24.837Z,73.09
2022-08-29T01:40:56.680Z,73.24
2022-08-29T01:46:28.421Z,73.22
2022-08-29T01:52:00.170Z,73.26
2022-08-29T01:57:32.064Z,73.29
2022-08-29T02:08:38.593Z,73.40
2022-08-29T02:14:19.368Z,73.51
2022-08-29T02:19:47.934Z,73.51
2022-08-29T02:25:19.475Z,73.59
2022-08-29T02:30:55.834Z,73.59
2022-08-29T02:36:22.392Z,73.63
2022-08-29T02:47:22.996Z,73.68
2022-08-29T02:52:54.420Z,73.73
2022-08-29T02:58:25.707Z,73.76
2022-08-29T03:03:57.703Z,73.74
2022-08-29T03:09:35.219Z,73.77
2022-08-29T03:15:06.795Z,73.77
2022-08-29T03:20:38.503Z,73.77
2022-08-29T03:26:10.325Z,73.80
2022-08-29T03:31:42.154Z,73.84
2022-08-29T03:37:13.918Z,73.85
2022-08-29T03:42:45.432Z,73.85
2022-08-29T03:48:16.715Z,73.90
2022-08-29T03:53:48.103Z,73.91
2022-08-29T03:59:19.879Z,73.97
2022-08-29T04:04:57.701Z,74.00
2022-08-29T04:10:29.348Z,74.02
2022-08-29T04:16:01.312Z,74.09
2022-08-29T04:21:38.887Z,74.12
2022-08-29T04:27:11.246Z,74.15
2022-08-29T04:32:43.272Z,74.19
2022-08-29T04:38:15.087Z,74.22
2022-08-29T04:43:46.796Z,74.26
2022-08-29T04:49:18.427Z,74.28
2022-08-29T04:54:50.187Z,74.28
2022-08-29T05:00:21.773Z,74.28
2022-08-29T05:05:53.171Z,74.32
2022-08-29T05:11:24.695Z,74.34
2022-08-29T05:16:56.595Z,74.30
2022-08-29T05:22:28.094Z,74.18
2022-08-29T05:27:59.474Z,74.05
2022-08-29T05:33:31.484Z,73.44
2022-08-29T05:39:03.418Z,73.01
2022-08-29T05:44:35.617Z,71.74
2022-08-29T05:50:06.819Z,70.99
2022-08-29T05:55:38.607Z,69.23
2022-08-29T06:01:10.354Z,68.08
2022-08-29T06:06:42.155Z,65.27
2022-08-29T06:12:14.036Z,63.96
2022-08-29T06:17:45.844Z,59.19
2022-08-29T06:23:17.391Z,58.92
2022-08-29T06:28:49.207Z,56.23
2022-08-29T06:34:21.061Z,55.33
2022-08-29T06:39:52.941Z,53.79
2022-08-29T06:45:24.309Z,52.68
2022-08-29T06:50:55.618Z,49.57
2022-08-29T06:56:27.143Z,48.68
2022-08-29T07:01:58.720Z,48.03
2022-08-29T07:07:30.274Z,48.13
2022-08-29T07:13:01.966Z,46.61
2022-08-29T07:18:33.930Z,46.27
2022-08-29T07:24:05.629Z,45.50
2022-08-29T07:29:37.447Z,42.97
2022-08-29T07:35:12.832Z,43.39
2022-08-29T07:40:41.313Z,43.48
2022-08-29T07:46:12.583Z,42.79
2022-08-29T07:51:44.868Z,43.04
2022-08-29T07:57:16.465Z,41.32
2022-08-29T08:02:48.030Z,41.81
2022-08-29T08:08:19.755Z,41.36
2022-08-29T08:13:51.135Z,40.78
2022-08-29T08:19:22.454Z,40.57
2022-08-29T08:24:53.816Z,40.69
2022-08-29T08:30:25.671Z,39.26
2022-08-29T08:35:57.042Z,39.32
2022-08-29T08:41:28.907Z,38.87
2022-08-29T08:47:00.455Z,38.98
2022-08-29T08:52:31.683Z,40.42
2022-08-29T08:58:03.129Z,41.65
2022-08-29T09:03:34.937Z,42.05
2022-08-29T09:09:06.763Z,42.40
2022-08-29T09:14:38.458Z,43.09
2022-08-29T09:20:10.404Z,43.12
2022-08-29T09:25:42.265Z,43.31
2022-08-29T09:31:13.680Z,43.35
2022-08-29T09:36:47.667Z,45.12
2022-08-29T09:42:16.739Z,46.08
2022-08-29T09:47:48.141Z,48.32
2022-08-29T09:53:24.835Z,48.95
2022-08-29T09:58:51.577Z,50.53
2022-08-29T10:04:23.563Z,50.91
2022-08-29T10:09:55.247Z,52.17
2022-08-29T10:15:46.975Z,52.32
2022-08-29T10:20:59.009Z,53.44
2022-08-29T10:26:37.192Z,52.59
2022-08-29T10:32:08.803Z,52.33
2022-08-29T10:37:40.860Z,52.19
2022-08-29T10:43:13.271Z,52.73
2022-08-29T10:48:45.042Z,53.07
2022-08-29T10:56:36.726Z,53.11
2022-08-29T11:02:08.651Z,53.27
2022-08-29T11:07:40.098Z,52.93
2022-08-29T11:13:12.008Z,53.10
2022-08-29T11:18:44.048Z,53.79
2022-08-29T11:24:15.774Z,53.33
2022-08-29T11:29:47.751Z,52.89
2022-08-29T11:41:26.050Z,51.80
2022-08-29T11:46:21.853Z,51.65
2022-08-29T11:51:53.751Z,51.41
2022-08-29T11:57:26.340Z,51.95
2022-08-29T12:02:58.022Z,51.73
2022-08-29T12:08:36.963Z,50.89
2022-08-29T12:14:02.641Z,50.89
2022-08-29T12:19:33.371Z,51.05
2022-08-29T12:25:05.204Z,50.35
2022-08-29T12:36:07.171Z,50.39
2022-08-29T12:47:09.007Z,50.30
2022-08-29T12:52:40.479Z,49.00
2022-08-29T12:58:12.251Z,49.32
2022-08-29T13:09:17.628Z,49.44
2022-08-29T13:14:45.515Z,48.54
2022-08-29T13:25:47.358Z,48.58
2022-08-29T13:31:19.058Z,47.90
2022-08-29T13:42:26.300Z,46.54
2022-08-29T13:53:27.967Z,46.54
2022-08-29T13:58:59.841Z,47.22
2022-08-29T14:04:38.860Z,46.84
2022-08-29T14:21:02.640Z,46.21
2022-08-29T14:26:40.071Z,45.50
2022-08-29T14:32:11.698Z,45.15
2022-08-29T14:37:43.219Z,45.07
2022-08-29T14:48:44.681Z,45.31
2022-08-29T14:54:16.291Z,45.46
2022-08-29T14:59:48.297Z,45.88
2022-08-29T15:05:20.137Z,45.68
2022-08-29T15:10:51.693Z,45.68
2022-08-29T15:38:26.376Z,44.87
2022-08-29T15:43:58.054Z,44.91
2022-08-29T16:00:30.964Z,44.26
2022-08-29T16:06:01.287Z,43.88
2022-08-29T16:11:34.813Z,43.44
2022-08-29T16:17:14.011Z,43.72
2022-08-29T16:22:44.488Z,44.56
2022-08-29T16:28:17.401Z,44.95
2022-08-29T16:39:21.005Z,44.25
2022-08-29T16:44:52.486Z,43.99
2022-08-29T16:50:23.772Z,43.70
2022-08-29T16:55:55.229Z,43.86
2022-08-29T17:01:26.829Z,43.47
2022-08-29T17:06:58.444Z,44.15
2022-08-29T17:12:29.828Z,44.12
2022-08-29T17:18:01.204Z,44.29
2022-08-29T17:23:32.980Z,44.35
2022-08-29T17:29:04.704Z,44.59
2022-08-29T17:34:36.248Z,44.94
2022-08-29T17:40:07.803Z,45.53
2022-08-29T17:45:39.463Z,45.91
2022-08-29T17:51:11.339Z,46.21
2022-08-29T17:56:44.252Z,46.48
2022-08-29T18:02:14.778Z,47.06
2022-08-29T18:07:46.512Z,47.22
2022-08-29T18:13:21.601Z,48.19
2022-08-29T18:18:49.913Z,48.26
2022-08-29T18:24:21.410Z,48.81
2022-08-29T18:29:52.978Z,49.12
2022-08-29T18:35:24.955Z,49.30
2022-08-29T18:40:56.662Z,49.77
2022-08-29T18:46:28.426Z,50.38
2022-08-29T18:52:00.165Z,50.45
2022-08-29T18:57:32.066Z,50.76
2022-08-29T19:03:04.011Z,51.20
2022-08-29T19:08:35.597Z,51.94
2022-08-29T19:14:07.033Z,52.07
2022-08-29T19:19:38.712Z,52.17
2022-08-29T19:25:10.011Z,52.32
2022-08-29T19:30:41.210Z,52.75
2022-08-29T19:36:12.641Z,53.07
2022-08-29T19:41:44.320Z,53.07
2022-08-29T19:58:19.401Z,53.52
2022-08-29T20:14:57.071Z,54.58
2022-08-29T20:26:00.154Z,54.74
2022-08-29T20:31:31.553Z,54.90
2022-08-29T20:37:02.751Z,56.16
2022-08-29T20:42:34.258Z,56.12
2022-08-29T20:48:06.120Z,56.38
2022-08-29T20:53:37.787Z,56.93
2022-08-29T20:59:09.312Z,60.04
2022-08-29T21:04:41.032Z,60.08
2022-08-29T21:10:12.644Z,59.60
2022-08-29T21:15:44.488Z,59.68
2022-08-29T21:21:16.608Z,59.57
2022-08-29T21:26:48.508Z,59.80
2022-08-29T21:32:20.003Z,59.94
2022-08-29T21:37:51.700Z,60.06
2022-08-29T21:43:23.360Z,60.17
2022-08-29T21:48:56.771Z,60.42
2022-08-29T21:54:27.019Z,60.43
2022-08-29T21:59:58.571Z,60.40
2022-08-29T22:05:31.004Z,60.53
2022-08-29T22:11:01.708Z,60.90
2022-08-29T22:16:33.609Z,61.02
2022-08-29T22:22:05.859Z,61.09
2022-08-29T22:27:38.050Z,61.16
2022-08-29T22:33:16.191Z,61.20
2022-08-29T22:38:42.168Z,61.30
2022-08-29T22:44:59.813Z,61.52
2022-08-29T22:49:45.973Z,62.65
2022-08-29T22:55:17.627Z,62.87
2022-08-29T23:00:49.662Z,62.86
2022-08-29T23:06:21.892Z,63.35
2022-08-29T23:11:53.435Z,63.45
2022-08-29T23:17:25.382Z,63.33
2022-08-29T23:22:57.065Z,63.28
2022-08-29T23:28:28.985Z,63.34
2022-08-29T23:34:00.711Z,63.51
2022-08-29T23:39:32.557Z,63.69
2022-08-29T23:45:04.508Z,63.76
2022-08-29T23:50:36.696Z,63.75
2022-08-29T23:56:08.772Z,63.87
